Time;durP1;ratioP1;P1;durP2;ratioP2;P2;SDS_P1;SDS_P2;PMS_P1;PMS_P2;Temp;Humidity;BMP_temperature;BMP_pressure;BME280_temperature;BME280_humidity;BME280_pressure;Samples;Min_cycle;Max_cycle;Signal;HPM_P1;HPM_P2
2024/03/31 00:00:07;;;;;;;92.13;24.63;;;;;;;;;;5862888;28;20045;-72
2024/03/31 00:02:57;;;;;;;116.65;35.90;;;;;;;;;;5876677;28;20075;-73
2024/03/31 00:05:47;;;;;;;59.08;14.93;;;;;;;;;;5902202;28;20056;-73
2024/03/31 00:08:37;;;;;;;76.53;23.63;;;;;;;;;;5885947;28;20451;-73
2024/03/31 00:11:27;;;;;;;91.05;33.03;;;;;;;;;;5885666;28;20044;-72
2024/03/31 00:14:16;;;;;;;64.95;9.90;;;;;;;;;;5885810;28;20080;-73
2024/03/31 00:17:06;;;;;;;16.42;5.40;;;;;;;;;;5885790;28;20049;-73
2024/03/31 00:19:56;;;;;;;39.05;11.50;;;;;;;;;;5885918;28;20399;-73
2024/03/31 00:22:46;;;;;;;22.65;6.85;;;;;;;;;;5902137;28;20057;-73
2024/03/31 00:25:36;;;;;;;26.23;5.57;;;;;;;;;;5885420;28;20041;-73
2024/03/31 00:28:27;;;;;;;7.45;2.83;;;;;;;;;;5885682;28;20052;-72
2024/03/31 00:31:17;;;;;;;16.48;6.40;;;;;;;;;;5885618;28;20049;-72
2024/03/31 00:34:07;;;;;;;28.67;5.72;;;;;;;;;;5885226;28;20521;-72
2024/03/31 00:36:57;;;;;;;54.95;10.70;;;;;;;;;;5885364;28;20045;-73
2024/03/31 00:39:46;;;;;;;72.75;19.05;;;;;;;;;;5885001;28;20045;-73
2024/03/31 00:42:36;;;;;;;64.35;17.33;;;;;;;;;;5901545;28;20045;-73
2024/03/31 00:45:26;;;;;;;48.60;15.57;;;;;;;;;;5884890;28;20548;-73
2024/03/31 00:48:16;;;;;;;36.38;6.63;;;;;;;;;;5901556;28;20049;-73
2024/03/31 00:51:06;;;;;;;22.85;8.80;;;;;;;;;;5884541;28;20084;-73
2024/03/31 00:53:56;;;;;;;15.43;2.80;;;;;;;;;;5885224;28;20052;-73
2024/03/31 00:56:45;;;;;;;19.98;5.05;;;;;;;;;;5901447;28;20056;-73
2024/03/31 00:59:36;;;;;;;13.23;5.25;;;;;;;;;;5884599;28;20534;-73
2024/03/31 01:02:26;;;;;;;23.23;4.40;;;;;;;;;;5901266;28;20048;-73
2024/03/31 01:05:15;;;;;;;21.58;6.95;;;;;;;;;;5884530;28;20376;-72
2024/03/31 01:08:06;;;;;;;22.00;9.50;;;;;;;;;;5901342;28;20049;-72
2024/03/31 01:10:56;;;;;;;38.10;15.43;;;;;;;;;;5901466;28;20052;-73
2024/03/31 01:13:47;;;;;;;52.58;10.43;;;;;;;;;;5901014;28;20056;-73
2024/03/31 01:16:37;;;;;;;35.83;9.50;;;;;;;;;;5851123;28;20045;-73
2024/03/31 01:19:27;;;;;;;31.20;10.73;;;;;;;;;;5884251;28;20542;-73
2024/03/31 01:22:18;;;;;;;21.48;8.40;;;;;;;;;;5884516;28;20052;-72
2024/03/31 01:25:08;;;;;;;36.10;14.32;;;;;;;;;;5867541;28;20052;-72
2024/03/31 01:27:57;;;;;;;42.15;18.35;;;;;;;;;;5884791;28;20052;-73
2024/03/31 01:30:47;;;;;;;34.60;11.70;;;;;;;;;;5884151;28;20410;-73
2024/03/31 01:33:37;;;;;;;37.53;14.23;;;;;;;;;;5884052;28;20080;-73
2024/03/31 01:36:27;;;;;;;36.22;10.25;;;;;;;;;;5900735;28;20052;-73
2024/03/31 01:39:18;;;;;;;31.90;9.20;;;;;;;;;;5900657;28;20127;-73
2024/03/31 01:42:07;;;;;;;25.90;4.78;;;;;;;;;;5883918;28;20048;-72
2024/03/31 01:44:57;;;;;;;37.90;13.18;;;;;;;;;;5884252;28;20049;-73
2024/03/31 01:47:47;;;;;;;23.98;8.77;;;;;;;;;;5883819;28;20037;-73
2024/03/31 01:50:37;;;;;;;39.63;11.43;;;;;;;;;;5883861;28;20292;-73
2024/03/31 01:53:27;;;;;;;69.63;13.98;;;;;;;;;;5900785;28;20044;-73
2024/03/31 01:56:16;;;;;;;85.68;20.88;;;;;;;;;;5850788;28;20417;-72
2024/03/31 01:59:06;;;;;;;35.08;9.95;;;;;;;;;;5883890;28;20435;-72
2024/03/31 02:01:56;;;;;;;68.03;13.60;;;;;;;;;;5884239;28;20780;-73
2024/03/31 02:04:46;;;;;;;38.05;8.60;;;;;;;;;;5883609;28;20049;-72
2024/03/31 02:07:36;;;;;;;46.55;10.43;;;;;;;;;;5883671;28;20494;-73
2024/03/31 02:10:25;;;;;;;15.70;5.45;;;;;;;;;;5867425;28;20052;-73
2024/03/31 02:13:17;;;;;;;32.17;14.35;;;;;;;;;;5883756;28;20098;-73
2024/03/31 02:16:07;;;;;;;23.90;5.22;;;;;;;;;;5900239;28;20045;-72
2024/03/31 02:18:57;;;;;;;75.55;16.65;;;;;;;;;;5884233;28;20052;-73
2024/03/31 02:21:47;;;;;;;65.50;15.73;;;;;;;;;;5883658;28;20052;-73
2024/03/31 02:24:36;;;;;;;24.05;8.45;;;;;;;;;;5883740;28;20122;-73
2024/03/31 02:27:26;;;;;;;23.77;6.57;;;;;;;;;;5885578;28;20041;-73
2024/03/31 02:30:16;;;;;;;15.98;2.83;;;;;;;;;;5888217;28;20053;-73
2024/03/31 02:33:06;;;;;;;23.73;5.93;;;;;;;;;;5887793;28;20542;-73
2024/03/31 02:35:56;;;;;;;21.50;6.90;;;;;;;;;;5888410;28;20053;-73
2024/03/31 02:38:45;;;;;;;28.80;6.10;;;;;;;;;;5887969;28;20072;-73
2024/03/31 02:41:35;;;;;;;26.08;10.20;;;;;;;;;;5888027;28;20041;-73
2024/03/31 02:44:25;;;;;;;16.15;4.93;;;;;;;;;;5904394;28;20071;-73
2024/03/31 02:47:15;;;;;;;17.92;5.65;;;;;;;;;;5887440;28;20045;-73
2024/03/31 02:50:05;;;;;;;18.08;6.07;;;;;;;;;;5887527;28;20107;-73
2024/03/31 02:52:54;;;;;;;32.00;5.03;;;;;;;;;;5904850;28;20104;-73
2024/03/31 02:55:44;;;;;;;29.38;7.20;;;;;;;;;;5887315;28;20049;-73
2024/03/31 02:58:34;;;;;;;11.13;4.65;;;;;;;;;;5887619;28;20060;-73
2024/03/31 03:01:24;;;;;;;27.13;7.22;;;;;;;;;;5887384;28;20048;-72
2024/03/31 03:04:13;;;;;;;24.33;7.57;;;;;;;;;;5886976;28;20128;-72
2024/03/31 03:07:03;;;;;;;17.25;5.43;;;;;;;;;;5903720;28;20094;-72
2024/03/31 03:09:53;;;;;;;24.58;3.75;;;;;;;;;;5904278;28;20048;-73
2024/03/31 03:12:46;;;;;;;2.97;1.83;;;;;;;;;;5887195;28;20052;-73
2024/03/31 03:15:36;;;;;;;7.30;2.88;;;;;;;;;;5903476;28;20104;-73
2024/03/31 03:18:26;;;;;;;8.45;2.45;;;;;;;;;;5903725;28;20063;-73
2024/03/31 03:21:16;;;;;;;4.45;2.65;;;;;;;;;;5886880;28;20067;-73
2024/03/31 03:24:06;;;;;;;6.25;2.03;;;;;;;;;;5886882;28;20045;-71
2024/03/31 03:26:56;;;;;;;9.60;3.08;;;;;;;;;;5903983;28;20053;-73
2024/03/31 03:29:45;;;;;;;3.17;1.90;;;;;;;;;;5903171;28;20053;-73
2024/03/31 03:32:35;;;;;;;14.45;2.55;;;;;;;;;;5903246;28;20048;-73
2024/03/31 03:35:26;;;;;;;22.77;3.05;;;;;;;;;;5886516;28;20879;-73
2024/03/31 03:38:16;;;;;;;29.67;2.90;;;;;;;;;;5886309;28;20052;-73
2024/03/31 03:41:06;;;;;;;13.15;2.65;;;;;;;;;;5886557;28;20449;-72
2024/03/31 03:43:55;;;;;;;2.60;1.20;;;;;;;;;;5886812;28;20056;-73
2024/03/31 03:46:45;;;;;;;5.22;1.88;;;;;;;;;;5886305;28;20546;-73
2024/03/31 03:49:35;;;;;;;7.03;1.60;;;;;;;;;;5886396;28;20045;-73
2024/03/31 03:52:24;;;;;;;26.65;2.20;;;;;;;;;;5886050;28;20055;-73
2024/03/31 03:55:14;;;;;;;5.80;2.60;;;;;;;;;;5886036;28;20507;-73
2024/03/31 03:58:04;;;;;;;4.80;2.35;;;;;;;;;;5902940;28;20053;-73
2024/03/31 04:00:54;;;;;;;6.28;2.70;;;;;;;;;;5903067;28;20049;-73
2024/03/31 04:03:44;;;;;;;6.35;3.15;;;;;;;;;;5886057;28;20079;-73
2024/03/31 04:06:34;;;;;;;27.05;2.72;;;;;;;;;;5885723;28;20053;-74
2024/03/31 04:09:24;;;;;;;10.50;3.33;;;;;;;;;;5885907;28;20052;-73
2024/03/31 04:12:14;;;;;;;4.45;2.53;;;;;;;;;;5885943;28;20113;-73
2024/03/31 04:15:04;;;;;;;2.38;1.65;;;;;;;;;;5885524;28;20056;-72
2024/03/31 04:17:54;;;;;;;2.55;2.08;;;;;;;;;;5886157;28;20414;-73
2024/03/31 04:20:43;;;;;;;6.80;2.10;;;;;;;;;;5885448;28;20052;-73
2024/03/31 04:23:34;;;;;;;8.50;2.53;;;;;;;;;;5902133;28;20098;-73
2024/03/31 04:26:25;;;;;;;30.55;5.60;;;;;;;;;;5885611;28;20048;-73
2024/03/31 04:29:15;;;;;;;5.18;2.65;;;;;;;;;;5885573;28;20052;-73
2024/03/31 04:32:05;;;;;;;4.82;2.08;;;;;;;;;;5885391;28;20051;-73
2024/03/31 04:34:56;;;;;;;4.63;1.40;;;;;;;;;;5885665;28;20057;-73
2024/03/31 04:37:49;;;;;;;18.95;2.38;;;;;;;;;;5885182;28;20064;-73
2024/03/31 04:40:39;;;;;;;3.78;1.23;;;;;;;;;;5885079;28;20098;-73
2024/03/31 04:43:29;;;;;;;5.90;0.93;;;;;;;;;;5901753;28;20044;-74
2024/03/31 04:46:18;;;;;;;6.38;1.15;;;;;;;;;;5885176;28;20057;-73
2024/03/31 04:49:08;;;;;;;11.50;1.25;;;;;;;;;;5884434;28;20049;-73
2024/03/31 04:51:58;;;;;;;5.07;1.67;;;;;;;;;;5885355;28;20049;-73
2024/03/31 04:54:47;;;;;;;5.97;2.03;;;;;;;;;;5884816;28;20056;-73
2024/03/31 04:57:37;;;;;;;5.60;1.98;;;;;;;;;;5884990;28;20059;-74
2024/03/31 05:00:27;;;;;;;4.43;1.95;;;;;;;;;;5884854;28;20044;-73
2024/03/31 05:03:17;;;;;;;6.93;1.25;;;;;;;;;;5884714;28;20135;-73
2024/03/31 05:06:06;;;;;;;10.32;1.08;;;;;;;;;;5884584;28;20500;-73
2024/03/31 05:08:56;;;;;;;6.03;1.92;;;;;;;;;;5885330;28;20060;-73
2024/03/31 05:11:46;;;;;;;27.65;3.15;;;;;;;;;;5884596;28;20044;-74
2024/03/31 05:14:36;;;;;;;4.93;0.80;;;;;;;;;;5884381;28;20052;-73
2024/03/31 05:17:26;;;;;;;8.70;2.10;;;;;;;;;;5884388;28;20502;-73
2024/03/31 05:20:15;;;;;;;5.57;1.75;;;;;;;;;;5884333;28;20053;-73
2024/03/31 05:23:05;;;;;;;2.75;1.17;;;;;;;;;;5901199;28;20075;-73
2024/03/31 05:25:55;;;;;;;11.23;2.95;;;;;;;;;;5884911;28;20049;-73
2024/03/31 05:28:45;;;;;;;5.35;1.05;;;;;;;;;;5884347;28;20514;-73
2024/03/31 05:31:34;;;;;;;5.68;1.00;;;;;;;;;;5884203;28;20045;-73
2024/03/31 05:34:24;;;;;;;6.07;1.15;;;;;;;;;;5884367;28;20049;-73
2024/03/31 05:37:14;;;;;;;18.02;2.05;;;;;;;;;;5884304;28;20053;-73
2024/03/31 05:40:04;;;;;;;15.23;1.58;;;;;;;;;;5884115;28;20414;-73
2024/03/31 05:42:54;;;;;;;2.42;1.17;;;;;;;;;;5901426;28;20049;-73
2024/03/31 05:45:44;;;;;;;5.22;1.65;;;;;;;;;;5884281;28;20457;-73
2024/03/31 05:48:33;;;;;;;10.95;1.70;;;;;;;;;;5867773;28;20045;-74
2024/03/31 05:51:23;;;;;;;6.45;1.65;;;;;;;;;;5884145;28;20097;-73
2024/03/31 05:54:14;;;;;;;6.93;2.08;;;;;;;;;;5884280;28;20049;-73
2024/03/31 05:57:04;;;;;;;24.17;1.92;;;;;;;;;;5883973;28;20045;-73
2024/03/31 05:59:54;;;;;;;3.97;1.00;;;;;;;;;;5884358;28;20076;-73
2024/03/31 06:02:44;;;;;;;44.45;2.05;;;;;;;;;;5887890;28;20045;-74
2024/03/31 06:05:33;;;;;;;10.50;3.40;;;;;;;;;;5888725;28;20045;-73
2024/03/31 06:08:23;;;;;;;9.55;1.45;;;;;;;;;;5888282;28;20099;-73
2024/03/31 06:11:14;;;;;;;5.90;1.48;;;;;;;;;;5888353;28;20148;-74
2024/03/31 06:14:04;;;;;;;5.63;1.88;;;;;;;;;;5904943;28;20053;-73
2024/03/31 06:16:55;;;;;;;4.55;1.48;;;;;;;;;;5905476;28;20502;-73
2024/03/31 06:19:44;;;;;;;15.48;1.90;;;;;;;;;;5888083;28;20055;-74
2024/03/31 06:22:42;;;;;;;4.35;1.55;;;;;;;;;;5888357;28;20049;-73
2024/03/31 06:25:31;;;;;;;6.95;1.30;;;;;;;;;;5905001;28;20403;-73
2024/03/31 06:28:21;;;;;;;3.05;1.60;;;;;;;;;;5888278;28;20052;-73
2024/03/31 06:31:11;;;;;;;6.32;1.80;;;;;;;;;;5887843;28;20144;-73
2024/03/31 06:34:01;;;;;;;4.43;1.20;;;;;;;;;;5888145;28;20056;-72
2024/03/31 06:36:50;;;;;;;3.92;1.88;;;;;;;;;;5888662;28;20052;-74
2024/03/31 06:39:40;;;;;;;2.33;0.98;;;;;;;;;;5888002;28;20414;-74
2024/03/31 06:42:30;;;;;;;7.53;2.55;;;;;;;;;;5887871;28;20041;-75
2024/03/31 06:45:20;;;;;;;7.20;2.35;;;;;;;;;;5887854;28;20123;-73
2024/03/31 06:48:10;;;;;;;4.63;1.67;;;;;;;;;;5888136;28;20060;-73
2024/03/31 06:50:59;;;;;;;6.93;1.00;;;;;;;;;;5871579;28;20486;-74
2024/03/31 06:53:50;;;;;;;1.35;0.75;;;;;;;;;;5887789;28;20383;-74
2024/03/31 06:56:40;;;;;;;6.88;1.45;;;;;;;;;;5870873;28;20045;-73
2024/03/31 06:59:30;;;;;;;1.42;0.93;;;;;;;;;;5887539;28;20094;-73
2024/03/31 07:02:20;;;;;;;1.77;0.82;;;;;;;;;;5887556;28;20095;-73
2024/03/31 07:05:10;;;;;;;3.78;1.33;;;;;;;;;;5887248;28;20383;-73
2024/03/31 07:07:59;;;;;;;3.50;1.27;;;;;;;;;;5887539;28;20048;-73
2024/03/31 07:10:49;;;;;;;4.63;1.40;;;;;;;;;;5887142;28;20095;-74
2024/03/31 07:13:39;;;;;;;10.88;1.90;;;;;;;;;;5903212;28;20060;-74
2024/03/31 07:16:29;;;;;;;2.58;0.85;;;;;;;;;;5870569;28;20175;-74
2024/03/31 07:19:18;;;;;;;9.68;1.05;;;;;;;;;;5903416;28;20049;-73
2024/03/31 07:22:08;;;;;;;3.60;1.08;;;;;;;;;;5886890;28;20041;-74
2024/03/31 07:24:58;;;;;;;8.63;0.98;;;;;;;;;;5887434;28;20052;-74
2024/03/31 07:27:48;;;;;;;4.40;1.15;;;;;;;;;;5886907;28;20430;-74
2024/03/31 07:30:38;;;;;;;3.15;1.20;;;;;;;;;;5886690;28;20045;-74
2024/03/31 07:33:27;;;;;;;3.28;1.30;;;;;;;;;;5886779;28;20387;-74
2024/03/31 07:36:17;;;;;;;6.22;1.38;;;;;;;;;;5886575;28;20052;-74
2024/03/31 07:39:07;;;;;;;3.28;1.10;;;;;;;;;;5886682;28;20084;-74
2024/03/31 07:41:56;;;;;;;5.07;1.63;;;;;;;;;;5887216;28;20053;-74
2024/03/31 07:44:48;;;;;;;2.22;1.55;;;;;;;;;;5886493;28;20383;-74
2024/03/31 07:47:38;;;;;;;13.52;2.22;;;;;;;;;;5903289;28;20049;-74
2024/03/31 07:50:27;;;;;;;6.03;0.95;;;;;;;;;;5886398;28;20050;-74
2024/03/31 07:53:17;;;;;;;5.38;1.05;;;;;;;;;;5903134;28;20049;-73
2024/03/31 07:56:07;;;;;;;0.95;0.65;;;;;;;;;;5886249;28;20052;-74
2024/03/31 07:58:58;;;;;;;23.08;1.40;;;;;;;;;;5903422;28;20049;-75
2024/03/31 08:01:47;;;;;;;5.35;1.52;;;;;;;;;;5885709;28;20075;-74
2024/03/31 08:04:39;;;;;;;5.18;1.17;;;;;;;;;;5886535;28;20045;-74
2024/03/31 08:07:33;;;;;;;7.72;1.10;;;;;;;;;;5869542;28;20048;-73
2024/03/31 08:10:22;;;;;;;7.70;2.08;;;;;;;;;;5886197;28;20044;-74
2024/03/31 08:13:12;;;;;;;11.27;1.13;;;;;;;;;;5886235;28;20041;-73
2024/03/31 08:16:05;;;;;;;14.77;1.60;;;;;;;;;;5886452;28;20115;-73
2024/03/31 08:18:57;;;;;;;7.60;2.53;;;;;;;;;;5886419;28;20499;-73
2024/03/31 08:21:47;;;;;;;4.57;1.50;;;;;;;;;;5869567;28;20049;-73
2024/03/31 08:24:37;;;;;;;4.03;1.50;;;;;;;;;;5884430;28;20053;-73
2024/03/31 08:27:26;;;;;;;8.07;2.03;;;;;;;;;;5874725;28;20106;-73
2024/03/31 08:30:16;;;;;;;7.47;1.65;;;;;;;;;;5866826;28;20473;-74
2024/03/31 08:33:06;;;;;;;5.63;1.70;;;;;;;;;;5885333;28;20116;-74
2024/03/31 08:35:56;;;;;;;8.27;1.50;;;;;;;;;;5886142;28;20339;-74
2024/03/31 08:38:46;;;;;;;5.82;1.10;;;;;;;;;;5885166;28;20052;-74
2024/03/31 08:41:59;;;;;;;7.45;2.05;;;;;;;;;;5885144;28;20056;-74
2024/03/31 08:44:50;;;;;;;11.63;1.42;;;;;;;;;;5885107;28;20055;-74
2024/03/31 08:52:10;;;;;;;4.47;1.52;;;;;;;;;;5884794;28;20063;-73
2024/03/31 08:55:03;;;;;;;4.88;0.95;;;;;;;;;;5885369;28;20053;-73
2024/03/31 08:57:52;;;;;;;5.53;1.40;;;;;;;;;;5901382;28;20041;-75
2024/03/31 09:00:43;;;;;;;11.55;1.77;;;;;;;;;;5884781;28;20053;-75
2024/03/31 09:03:33;;;;;;;2.70;1.52;;;;;;;;;;5884618;28;20052;-74
2024/03/31 09:06:23;;;;;;;2.05;0.82;;;;;;;;;;5884690;28;20060;-74
2024/03/31 09:09:13;;;;;;;7.53;1.60;;;;;;;;;;5884429;28;20470;-74
2024/03/31 09:12:03;;;;;;;15.45;2.25;;;;;;;;;;5868118;28;20120;-73
2024/03/31 09:14:53;;;;;;;10.90;2.33;;;;;;;;;;5868384;28;20091;-74
2024/03/31 09:17:43;;;;;;;15.93;1.60;;;;;;;;;;5884453;28;20049;-75
2024/03/31 09:20:33;;;;;;;42.38;3.58;;;;;;;;;;5884389;28;20453;-75
2024/03/31 09:23:22;;;;;;;14.93;1.83;;;;;;;;;;5900825;28;20045;-75
2024/03/31 09:26:12;;;;;;;33.97;2.33;;;;;;;;;;5884257;28;20049;-73
2024/03/31 09:29:03;;;;;;;5.35;1.50;;;;;;;;;;5884230;28;20474;-73
2024/03/31 09:32:10;;;;;;;29.42;3.28;;;;;;;;;;5884805;28;20045;-74
2024/03/31 09:35:00;;;;;;;13.97;3.50;;;;;;;;;;5884410;28;20491;-76
2024/03/31 09:37:51;;;;;;;14.68;2.38;;;;;;;;;;5884004;28;20132;-74
2024/03/31 09:40:40;;;;;;;15.18;1.55;;;;;;;;;;5884101;28;20052;-74
2024/03/31 09:43:30;;;;;;;21.50;2.35;;;;;;;;;;5883968;28;20124;-74
2024/03/31 09:46:20;;;;;;;27.00;3.72;;;;;;;;;;5867725;28;20129;-74
2024/03/31 09:49:24;;;;;;;10.40;2.65;;;;;;;;;;5884179;28;20136;-73
2024/03/31 09:52:22;;;;;;;15.27;3.50;;;;;;;;;;5884127;28;20110;-75
2024/03/31 09:55:24;;;;;;;13.53;3.43;;;;;;;;;;5900878;28;20048;-73
2024/03/31 09:58:17;;;;;;;18.20;3.28;;;;;;;;;;5869991;28;20112;-74
2024/03/31 10:01:08;;;;;;;19.98;3.17;;;;;;;;;;5851376;28;20041;-74
2024/03/31 10:04:09;;;;;;;24.65;3.70;;;;;;;;;;5851238;28;20052;-74
2024/03/31 10:06:59;;;;;;;41.88;3.88;;;;;;;;;;5900603;28;20052;-74
2024/03/31 10:09:50;;;;;;;30.65;3.33;;;;;;;;;;5883851;28;20068;-74
2024/03/31 10:12:40;;;;;;;23.23;4.07;;;;;;;;;;5883573;28;20041;-74
2024/03/31 10:15:32;;;;;;;30.00;4.25;;;;;;;;;;5883594;28;20049;-73
2024/03/31 10:18:26;;;;;;;14.80;3.85;;;;;;;;;;5883502;28;20052;-73
2024/03/31 10:21:17;;;;;;;11.80;2.72;;;;;;;;;;5883922;28;20045;-75
2024/03/31 10:24:10;;;;;;;35.95;5.68;;;;;;;;;;5883425;28;20045;-74
2024/03/31 10:27:04;;;;;;;37.00;3.30;;;;;;;;;;5884553;28;20045;-72
2024/03/31 10:29:55;;;;;;;24.08;3.88;;;;;;;;;;5883852;28;20049;-73
2024/03/31 10:32:49;;;;;;;21.17;2.42;;;;;;;;;;5900450;28;20041;-73
2024/03/31 10:35:40;;;;;;;12.70;3.75;;;;;;;;;;5899939;28;20083;-73
2024/03/31 10:38:31;;;;;;;53.08;5.40;;;;;;;;;;5866154;28;20053;-75
2024/03/31 10:41:21;;;;;;;19.63;5.15;;;;;;;;;;5883004;28;20111;-73
2024/03/31 10:44:11;;;;;;;19.40;4.68;;;;;;;;;;5883257;28;20057;-74
2024/03/31 10:47:01;;;;;;;76.63;6.07;;;;;;;;;;5883614;28;20132;-72
2024/03/31 10:50:03;;;;;;;13.88;3.92;;;;;;;;;;5871158;28;20075;-73
2024/03/31 10:52:53;;;;;;;64.28;4.80;;;;;;;;;;5888077;28;20564;-73
2024/03/31 10:55:45;;;;;;;23.30;3.88;;;;;;;;;;5870925;28;20045;-74
2024/03/31 10:58:39;;;;;;;27.70;4.03;;;;;;;;;;5887328;28;20053;-73
2024/03/31 11:01:30;;;;;;;12.57;2.80;;;;;;;;;;5870948;28;20453;-74
2024/03/31 11:04:20;;;;;;;25.98;4.10;;;;;;;;;;5887347;28;20051;-74
2024/03/31 11:07:15;;;;;;;22.23;3.40;;;;;;;;;;5904048;28;20044;-73
2024/03/31 11:10:07;;;;;;;42.13;4.43;;;;;;;;;;5887129;28;20049;-73
2024/03/31 11:12:58;;;;;;;12.73;3.45;;;;;;;;;;5887508;28;20499;-74
2024/03/31 11:15:48;;;;;;;20.13;4.15;;;;;;;;;;5886864;28;20608;-74
2024/03/31 11:18:37;;;;;;;25.45;5.00;;;;;;;;;;5903603;28;20606;-75
2024/03/31 11:21:32;;;;;;;32.03;5.63;;;;;;;;;;5886856;28;20049;-74
2024/03/31 11:24:22;;;;;;;53.88;8.27;;;;;;;;;;5886798;28;20142;-72
2024/03/31 11:27:12;;;;;;;33.25;6.85;;;;;;;;;;5886946;28;20041;-74
2024/03/31 11:30:09;;;;;;;38.40;6.70;;;;;;;;;;5870236;28;20045;-74
2024/03/31 11:33:03;;;;;;;32.28;6.65;;;;;;;;;;5871182;28;20095;-74
2024/03/31 11:35:55;;;;;;;31.55;6.28;;;;;;;;;;5886758;28;20449;-72
2024/03/31 11:38:45;;;;;;;41.42;5.22;;;;;;;;;;5902993;28;20171;-73
2024/03/31 11:41:35;;;;;;;45.33;7.03;;;;;;;;;;5869871;28;20076;-73
2024/03/31 11:44:26;;;;;;;74.80;6.95;;;;;;;;;;5886503;28;20041;-73
2024/03/31 11:47:16;;;;;;;80.43;11.88;;;;;;;;;;5886281;28;20053;-73
2024/03/31 11:50:06;;;;;;;27.23;6.82;;;;;;;;;;5869832;28;20052;-73
2024/03/31 11:52:56;;;;;;;46.85;7.80;;;;;;;;;;5886941;28;20044;-72
2024/03/31 11:55:46;;;;;;;37.67;6.82;;;;;;;;;;5885971;28;20045;-72
2024/03/31 11:58:37;;;;;;;32.40;6.70;;;;;;;;;;5869221;28;20123;-73
2024/03/31 12:01:26;;;;;;;43.78;6.63;;;;;;;;;;5885903;28;20099;-72
2024/03/31 12:04:17;;;;;;;38.25;7.18;;;;;;;;;;5886034;28;20049;-73
2024/03/31 12:07:07;;;;;;;34.17;6.68;;;;;;;;;;5885797;28;20075;-73
2024/03/31 12:09:56;;;;;;;30.13;4.82;;;;;;;;;;5886114;28;20128;-72
2024/03/31 12:12:46;;;;;;;57.17;8.45;;;;;;;;;;5885604;28;20048;-73
2024/03/31 12:15:36;;;;;;;22.83;5.22;;;;;;;;;;5885626;28;20048;-73
2024/03/31 12:18:26;;;;;;;36.63;5.53;;;;;;;;;;5885386;28;20406;-72
2024/03/31 12:21:23;;;;;;;71.70;6.80;;;;;;;;;;5885354;28;20080;-73
2024/03/31 12:24:13;;;;;;;35.30;6.10;;;;;;;;;;5869197;28;20041;-73
2024/03/31 12:27:04;;;;;;;35.35;7.15;;;;;;;;;;5885537;28;20049;-73
2024/03/31 12:29:53;;;;;;;38.15;5.75;;;;;;;;;;5885814;28;20060;-73
2024/03/31 12:32:44;;;;;;;36.10;5.68;;;;;;;;;;5884894;28;20470;-73
2024/03/31 12:35:34;;;;;;;19.13;5.25;;;;;;;;;;5885082;28;20099;-74
2024/03/31 12:38:25;;;;;;;20.20;4.75;;;;;;;;;;5901637;28;20052;-72
2024/03/31 12:41:17;;;;;;;46.53;6.60;;;;;;;;;;5885180;28;20055;-73
2024/03/31 12:44:08;;;;;;;33.47;5.05;;;;;;;;;;5884590;28;20052;-73
2024/03/31 12:46:59;;;;;;;38.15;5.90;;;;;;;;;;5885585;28;20525;-71
2024/03/31 12:49:49;;;;;;;26.05;4.50;;;;;;;;;;5884647;28;20091;-73
2024/03/31 12:52:39;;;;;;;19.05;4.47;;;;;;;;;;5901345;28;20053;-73
2024/03/31 12:55:29;;;;;;;15.68;4.82;;;;;;;;;;5884870;28;20102;-72
2024/03/31 12:58:19;;;;;;;53.42;7.80;;;;;;;;;;5867931;28;20052;-73
2024/03/31 13:01:09;;;;;;;36.53;10.40;;;;;;;;;;5884560;28;20072;-74
2024/03/31 13:03:59;;;;;;;55.00;8.15;;;;;;;;;;5884783;28;20052;-74
2024/03/31 13:06:49;;;;;;;58.80;8.73;;;;;;;;;;5901277;28;20143;-74
2024/03/31 13:09:39;;;;;;;61.78;8.80;;;;;;;;;;5884433;28;20097;-75
2024/03/31 13:12:30;;;;;;;38.90;6.78;;;;;;;;;;5900389;28;20495;-73
2024/03/31 13:15:20;;;;;;;39.47;6.07;;;;;;;;;;5901124;28;20049;-72
2024/03/31 13:18:10;;;;;;;24.42;7.05;;;;;;;;;;5884368;28;20433;-73
2024/03/31 13:20:59;;;;;;;37.83;6.72;;;;;;;;;;5884437;28;20051;-74
2024/03/31 13:23:49;;;;;;;27.83;4.88;;;;;;;;;;5884350;28;20064;-73
2024/03/31 13:26:39;;;;;;;26.45;6.90;;;;;;;;;;5884207;28;20445;-74
2024/03/31 13:29:29;;;;;;;80.57;8.82;;;;;;;;;;5884119;28;20090;-73
2024/03/31 13:32:20;;;;;;;33.00;6.07;;;;;;;;;;5884311;28;20130;-73
2024/03/31 13:35:09;;;;;;;53.92;7.47;;;;;;;;;;5884042;28;20127;-73
2024/03/31 13:37:59;;;;;;;43.38;6.18;;;;;;;;;;5868210;28;20084;-73
2024/03/31 13:40:49;;;;;;;39.38;7.18;;;;;;;;;;5884096;28;20392;-73
2024/03/31 13:43:39;;;;;;;30.42;7.97;;;;;;;;;;5900575;28;20056;-74
2024/03/31 13:46:28;;;;;;;22.33;5.93;;;;;;;;;;5884027;28;20122;-74
2024/03/31 13:49:18;;;;;;;36.38;7.15;;;;;;;;;;5883980;28;20391;-74
2024/03/31 13:52:08;;;;;;;36.65;5.63;;;;;;;;;;5883859;28;20313;-72
2024/03/31 13:54:58;;;;;;;54.72;7.15;;;;;;;;;;5867618;28;20128;-74
2024/03/31 13:57:47;;;;;;;34.40;6.47;;;;;;;;;;5883962;28;20123;-73
2024/03/31 14:00:37;;;;;;;51.53;6.10;;;;;;;;;;5883988;28;20053;-73
2024/03/31 14:03:27;;;;;;;58.83;5.32;;;;;;;;;;5883777;28;20415;-73
2024/03/31 14:06:17;;;;;;;33.10;5.53;;;;;;;;;;5883606;28;20045;-72
2024/03/31 14:09:07;;;;;;;38.50;6.22;;;;;;;;;;5900024;28;20048;-73
2024/03/31 14:11:57;;;;;;;51.83;5.75;;;;;;;;;;5884105;28;20053;-72
2024/03/31 14:14:50;;;;;;;31.55;5.32;;;;;;;;;;5867191;28;20128;-72
2024/03/31 14:17:39;;;;;;;29.58;5.20;;;;;;;;;;5883652;28;20048;-73
2024/03/31 14:20:30;;;;;;;20.73;6.70;;;;;;;;;;5900184;28;20060;-73
2024/03/31 14:23:20;;;;;;;31.80;5.63;;;;;;;;;;5885079;28;20040;-73
2024/03/31 14:26:10;;;;;;;45.30;6.00;;;;;;;;;;5888077;28;20087;-72
2024/03/31 14:28:59;;;;;;;35.83;6.63;;;;;;;;;;5888418;28;20132;-73
2024/03/31 14:31:49;;;;;;;27.80;6.18;;;;;;;;;;5888019;28;20049;-73
2024/03/31 14:34:39;;;;;;;37.78;5.55;;;;;;;;;;5887678;28;20044;-73
2024/03/31 14:37:29;;;;;;;26.92;5.78;;;;;;;;;;5871240;28;20429;-72
2024/03/31 14:40:18;;;;;;;17.65;3.10;;;;;;;;;;5887494;28;20076;-72
2024/03/31 14:43:08;;;;;;;26.55;7.00;;;;;;;;;;5887805;28;20049;-72
2024/03/31 14:46:01;;;;;;;37.65;5.18;;;;;;;;;;5888074;28;20057;-73
2024/03/31 14:48:51;;;;;;;23.85;5.07;;;;;;;;;;5887764;28;20045;-72
2024/03/31 14:51:41;;;;;;;20.23;4.38;;;;;;;;;;5887321;28;20118;-73
2024/03/31 14:54:31;;;;;;;28.60;5.82;;;;;;;;;;5903815;28;20044;-72
2024/03/31 14:57:21;;;;;;;29.63;5.47;;;;;;;;;;5887505;28;20052;-72
2024/03/31 15:00:11;;;;;;;40.03;6.10;;;;;;;;;;5887222;28;20418;-73
2024/03/31 15:03:01;;;;;;;30.67;5.40;;;;;;;;;;5887155;28;20453;-72
2024/03/31 15:05:51;;;;;;;38.90;5.55;;;;;;;;;;5887623;28;20053;-73
2024/03/31 15:08:41;;;;;;;39.65;7.95;;;;;;;;;;5886779;28;20053;-73
2024/03/31 15:11:31;;;;;;;30.90;5.97;;;;;;;;;;5887252;28;20037;-73
2024/03/31 15:14:20;;;;;;;25.83;5.85;;;;;;;;;;5886946;28;20045;-72
2024/03/31 15:17:10;;;;;;;56.83;6.20;;;;;;;;;;5887124;28;20084;-72
2024/03/31 15:20:00;;;;;;;26.73;6.13;;;;;;;;;;5887426;28;20418;-73
2024/03/31 15:22:50;;;;;;;49.80;7.50;;;;;;;;;;5886961;28;20056;-73
2024/03/31 15:25:40;;;;;;;17.42;5.18;;;;;;;;;;5870030;28;20048;-73
2024/03/31 15:28:29;;;;;;;44.63;6.60;;;;;;;;;;5903290;28;20045;-72
2024/03/31 15:31:19;;;;;;;35.08;6.22;;;;;;;;;;5886605;28;20078;-72
2024/03/31 15:34:09;;;;;;;27.25;4.93;;;;;;;;;;5885817;28;20071;-72
2024/03/31 15:36:59;;;;;;;63.25;7.18;;;;;;;;;;5887074;28;20045;-73
2024/03/31 15:39:48;;;;;;;56.55;6.70;;;;;;;;;;5886171;28;20526;-73
2024/03/31 15:42:38;;;;;;;33.40;7.35;;;;;;;;;;5886188;28;20048;-72
2024/03/31 15:45:28;;;;;;;62.35;7.28;;;;;;;;;;5886338;28;20407;-72
2024/03/31 15:48:18;;;;;;;40.92;9.07;;;;;;;;;;5886174;28;20053;-72
2024/03/31 15:51:07;;;;;;;49.17;7.75;;;;;;;;;;5886193;28;20052;-72
2024/03/31 15:53:57;;;;;;;40.75;10.05;;;;;;;;;;5886746;28;20124;-72
2024/03/31 15:56:47;;;;;;;26.17;5.03;;;;;;;;;;5902731;28;20045;-72
2024/03/31 15:59:37;;;;;;;22.83;5.15;;;;;;;;;;5886051;28;20083;-72
2024/03/31 16:02:26;;;;;;;38.97;5.55;;;;;;;;;;5886287;28;20119;-72
2024/03/31 16:05:16;;;;;;;49.45;5.88;;;;;;;;;;5885864;28;20049;-73
2024/03/31 16:08:08;;;;;;;59.38;7.88;;;;;;;;;;5885794;28;20052;-72
2024/03/31 16:10:58;;;;;;;38.45;5.22;;;;;;;;;;5886223;28;20056;-73
2024/03/31 16:13:52;;;;;;;40.58;9.10;;;;;;;;;;5885984;28;20072;-73
2024/03/31 16:16:42;;;;;;;25.00;5.05;;;;;;;;;;5885809;28;20078;-73
2024/03/31 16:19:31;;;;;;;29.95;5.15;;;;;;;;;;5885448;28;20132;-67
2024/03/31 16:22:21;;;;;;;47.75;6.13;;;;;;;;;;5886004;28;20041;-67
2024/03/31 16:25:11;;;;;;;24.35;4.65;;;;;;;;;;5885408;28;20057;-67
2024/03/31 16:28:01;;;;;;;20.77;4.97;;;;;;;;;;5885517;28;20083;-67
2024/03/31 16:30:51;;;;;;;23.30;5.82;;;;;;;;;;5886035;28;20053;-67
2024/03/31 16:33:40;;;;;;;22.30;4.93;;;;;;;;;;5885402;28;20145;-67
2024/03/31 16:36:30;;;;;;;33.30;5.13;;;;;;;;;;5885446;28;20045;-67
2024/03/31 16:39:20;;;;;;;30.75;4.43;;;;;;;;;;5885172;28;20204;-67
2024/03/31 16:42:10;;;;;;;40.85;5.43;;;;;;;;;;5885167;28;20053;-68
2024/03/31 16:45:01;;;;;;;39.75;7.03;;;;;;;;;;5884535;28;20529;-68
2024/03/31 16:47:50;;;;;;;39.05;9.07;;;;;;;;;;5885312;28;20407;-67
2024/03/31 16:50:40;;;;;;;72.43;13.57;;;;;;;;;;5884941;28;20056;-67
2024/03/31 16:53:30;;;;;;;40.85;9.82;;;;;;;;;;5885056;28;20388;-67